createdAt,value
2022-08-01T00:00:45.815Z,21.08
2022-08-01T00:03:50.995Z,21.08
2022-08-01T00:06:54.768Z,21.08
2022-08-01T00:09:58.468Z,21.09
2022-08-01T00:13:02.164Z,21.09
2022-08-01T00:16:06.197Z,21.08
2022-08-01T00:19:11.496Z,21.08
2022-08-01T00:22:15.330Z,21.07
2022-08-01T00:25:19.113Z,21.08
2022-08-01T00:28:22.834Z,21.08
2022-08-01T00:31:26.635Z,21.08
2022-08-01T00:34:31.806Z,21.08
2022-08-01T00:37:35.600Z,21.07
2022-08-01T00:40:39.441Z,21.07
2022-08-01T00:43:43.173Z,21.07
2022-08-01T00:46:46.912Z,21.04
2022-08-01T00:49:52.136Z,21.06
2022-08-01T00:52:57.008Z,21.05
2022-08-01T00:56:01.522Z,21.05
2022-08-01T00:59:06.741Z,21.05
2022-08-01T01:02:14.921Z,21.06
2022-08-01T01:05:21.381Z,21.06
2022-08-01T01:08:32.192Z,21.04
2022-08-01T01:11:48.901Z,21.04
2022-08-01T01:14:58.918Z,21.06
2022-08-01T01:18:05.657Z,21.06
2022-08-01T01:21:17.667Z,21.03
2022-08-01T01:24:43.039Z,21.02
2022-08-01T01:27:53.617Z,21.04
2022-08-01T01:31:00.483Z,21.02
2022-08-01T01:34:06.486Z,21.03
2022-08-01T01:37:14.775Z,21.02
2022-08-01T01:40:20.069Z,21.02
2022-08-01T01:43:28.779Z,20.99
2022-08-01T01:46:38.885Z,21.19
2022-08-01T01:49:46.053Z,21.22
2022-08-01T01:52:52.036Z,21.24
2022-08-01T01:55:57.798Z,20.99
2022-08-01T01:59:05.140Z,20.96
2022-08-01T02:02:11.636Z,20.95
2022-08-01T02:05:16.196Z,20.95
2022-08-01T02:08:20.088Z,20.94
2022-08-01T02:11:24.208Z,20.93
2022-08-01T02:14:29.191Z,20.92
2022-08-01T02:17:36.416Z,20.93
2022-08-01T02:20:40.547Z,20.92
2022-08-01T02:23:45.962Z,20.92
2022-08-01T02:26:53.056Z,20.92
2022-08-01T02:30:01.043Z,20.92
2022-08-01T02:33:16.164Z,20.90
2022-08-01T02:36:31.667Z,20.92
2022-08-01T02:39:40.058Z,20.90
2022-08-01T02:42:47.660Z,20.91
2022-08-01T02:45:56.308Z,20.91
2022-08-01T02:49:04.968Z,20.90
2022-08-01T02:52:12.566Z,20.89
2022-08-01T02:55:17.178Z,20.88
2022-08-01T02:58:29.228Z,20.87
2022-08-01T03:01:36.544Z,20.88
2022-08-01T03:04:43.684Z,20.88
2022-08-01T03:07:48.816Z,20.88
2022-08-01T03:10:55.881Z,20.87
2022-08-01T03:14:03.756Z,20.82
2022-08-01T03:17:09.419Z,20.81
2022-08-01T03:20:17.565Z,20.80
2022-08-01T03:23:23.539Z,20.79
2022-08-01T03:26:43.259Z,20.78
2022-08-01T03:29:47.471Z,20.77
2022-08-01T03:32:51.334Z,20.78
2022-08-01T03:35:58.748Z,20.77
2022-08-01T03:39:07.236Z,20.77
2022-08-01T03:42:18.134Z,20.77
2022-08-01T03:45:25.579Z,20.78
2022-08-01T03:48:35.169Z,20.76
2022-08-01T03:51:41.059Z,20.75
2022-08-01T03:54:49.142Z,20.75
2022-08-01T03:57:53.819Z,20.75
2022-08-01T04:00:58.018Z,20.74
2022-08-01T04:04:02.535Z,20.74
2022-08-01T04:07:09.682Z,20.73
2022-08-01T04:10:13.446Z,20.73
2022-08-01T04:13:17.223Z,20.72
2022-08-01T04:16:21.093Z,20.73
2022-08-01T04:19:24.845Z,20.72
2022-08-01T04:22:31.593Z,20.73
2022-08-01T04:25:38.079Z,20.73
2022-08-01T04:28:44.894Z,20.72
2022-08-01T04:31:51.168Z,20.73
2022-08-01T04:34:57.729Z,20.72
2022-08-01T04:38:03.886Z,20.73
2022-08-01T04:41:09.863Z,20.72
2022-08-01T04:44:13.821Z,20.72
2022-08-01T04:47:17.953Z,20.74
2022-08-01T04:50:23.153Z,20.75
2022-08-01T04:53:28.980Z,20.75
2022-08-01T04:56:35.108Z,20.75
2022-08-01T04:59:43.932Z,20.75
2022-08-01T05:02:48.119Z,20.75
2022-08-01T05:05:51.836Z,20.74
2022-08-01T05:08:57.018Z,20.73
2022-08-01T05:12:02.746Z,20.73
2022-08-01T05:15:13.256Z,20.73
2022-08-01T05:18:18.772Z,20.74
2022-08-01T05:21:31.801Z,20.74
2022-08-01T05:24:40.138Z,20.74
2022-08-01T05:27:44.001Z,20.73
2022-08-01T05:30:48.573Z,20.73
2022-08-01T05:33:52.259Z,20.73
2022-08-01T05:36:57.701Z,20.73
2022-08-01T05:40:03.438Z,20.74
2022-08-01T05:43:07.193Z,20.72
2022-08-01T05:46:11.028Z,20.73
2022-08-01T05:49:14.807Z,20.73
2022-08-01T05:52:18.571Z,20.74
2022-08-01T05:55:23.877Z,20.73
2022-08-01T05:58:27.583Z,20.73
2022-08-01T06:01:31.727Z,20.72
2022-08-01T06:04:35.480Z,20.73
2022-08-01T06:07:40.567Z,20.72
2022-08-01T06:10:45.651Z,20.71
2022-08-01T06:13:49.310Z,20.71
2022-08-01T06:16:53.009Z,20.71
2022-08-01T06:19:56.836Z,20.70
2022-08-01T06:23:01.048Z,20.70
2022-08-01T06:26:11.184Z,20.72
2022-08-01T06:29:15.204Z,20.70
2022-08-01T06:32:27.180Z,20.71
2022-08-01T06:35:32.062Z,20.68
2022-08-01T06:38:35.844Z,20.70
2022-08-01T06:41:42.504Z,20.69
2022-08-01T06:44:46.330Z,20.69
2022-08-01T06:47:50.816Z,20.69
2022-08-01T06:51:08.933Z,20.69
2022-08-01T06:54:12.919Z,20.70
2022-08-01T06:57:17.987Z,20.69
2022-08-01T07:00:24.342Z,20.68
2022-08-01T07:03:52.937Z,20.70
2022-08-01T07:06:51.999Z,20.70
2022-08-01T07:09:55.694Z,20.69
2022-08-01T07:13:00.855Z,20.68
2022-08-01T07:16:04.816Z,20.69
2022-08-01T07:19:09.089Z,20.69
2022-08-01T07:22:12.889Z,20.69
2022-08-01T07:25:26.884Z,20.68
2022-08-01T07:28:32.555Z,20.69
2022-08-01T07:31:36.280Z,20.68
2022-08-01T07:34:39.996Z,20.70
2022-08-01T07:37:48.805Z,20.73
2022-08-01T07:40:53.171Z,20.79
2022-08-01T07:44:01.779Z,20.87
2022-08-01T07:47:08.383Z,20.94
2022-08-01T07:50:13.611Z,21.01
2022-08-01T07:53:17.452Z,21.10
2022-08-01T07:56:21.208Z,21.15
2022-08-01T07:59:26.456Z,21.19
2022-08-01T08:02:30.192Z,21.26
2022-08-01T08:05:51.609Z,21.29
2022-08-01T08:08:59.808Z,21.33
2022-08-01T08:12:03.715Z,21.37
2022-08-01T08:15:10.030Z,21.41
2022-08-01T08:18:13.870Z,21.44
2022-08-01T08:21:17.782Z,21.46
2022-08-01T08:24:26.947Z,21.47
2022-08-01T08:27:30.950Z,21.53
2022-08-01T08:30:36.380Z,21.58
2022-08-01T08:33:40.014Z,21.63
2022-08-01T08:36:47.680Z,21.65
2022-08-01T08:39:51.831Z,21.68
2022-08-01T08:42:55.603Z,21.72
2022-08-01T08:46:03.392Z,21.75
2022-08-01T08:49:07.954Z,21.78
2022-08-01T08:52:13.112Z,21.81
2022-08-01T08:55:19.929Z,21.85
2022-08-01T08:58:29.150Z,21.88
2022-08-01T09:01:36.775Z,21.94
2022-08-01T09:04:41.318Z,21.97
2022-08-01T09:07:45.482Z,21.97
2022-08-01T09:10:49.255Z,21.87
2022-08-01T09:14:08.089Z,21.82
2022-08-01T09:17:13.734Z,21.79
2022-08-01T09:20:25.935Z,21.73
2022-08-01T09:23:36.094Z,21.72
2022-08-01T09:26:39.811Z,21.72
2022-08-01T09:29:45.575Z,21.75
2022-08-01T09:33:01.489Z,21.78
2022-08-01T09:36:05.701Z,21.80
2022-08-01T09:39:17.737Z,21.84
2022-08-01T09:42:29.131Z,21.86
2022-08-01T09:45:41.814Z,21.88
2022-08-01T09:48:59.631Z,21.88
2022-08-01T09:52:13.304Z,21.88
2022-08-01T09:55:23.821Z,21.86
2022-08-01T09:58:27.542Z,21.86
2022-08-01T10:01:44.716Z,21.81
2022-08-01T10:04:51.274Z,21.82
2022-08-01T10:07:59.923Z,21.81
2022-08-01T10:11:12.210Z,21.81
2022-08-01T10:14:17.890Z,21.80
2022-08-01T10:17:22.822Z,21.81
2022-08-01T10:20:32.299Z,21.83
2022-08-01T10:23:39.747Z,21.87
2022-08-01T10:26:46.381Z,21.86
2022-08-01T10:30:05.855Z,21.88
2022-08-01T10:33:15.384Z,21.92
2022-08-01T10:36:40.905Z,21.99
2022-08-01T10:39:46.861Z,22.00
2022-08-01T10:42:51.609Z,22.03
2022-08-01T10:45:57.293Z,22.05
2022-08-01T10:49:07.136Z,22.10
2022-08-01T10:52:19.535Z,22.12
2022-08-01T10:55:26.879Z,22.14
2022-08-01T10:58:39.587Z,22.15
2022-08-01T11:01:59.545Z,22.18
2022-08-01T11:05:09.577Z,22.17
2022-08-01T11:08:23.861Z,22.16
2022-08-01T11:11:27.678Z,22.15
2022-08-01T11:14:54.894Z,22.15
2022-08-01T11:18:00.440Z,22.13
2022-08-01T11:21:58.522Z,22.12
2022-08-01T11:24:59.033Z,22.10
2022-08-01T11:28:29.206Z,22.10
2022-08-01T11:31:37.681Z,22.08
2022-08-01T11:34:55.276Z,22.06
2022-08-01T11:38:00.287Z,22.04
2022-08-01T11:41:16.447Z,22.02
2022-08-01T11:44:30.260Z,21.98
2022-08-01T11:47:49.882Z,21.97
2022-08-01T11:50:54.892Z,21.93
2022-08-01T11:53:59.838Z,21.90
2022-08-01T11:57:07.194Z,21.87
2022-08-01T12:00:15.249Z,21.85
2022-08-01T12:03:33.521Z,21.84
2022-08-01T12:06:37.636Z,21.81
2022-08-01T12:09:45.357Z,21.79
2022-08-01T12:12:52.361Z,21.78
2022-08-01T12:15:57.256Z,21.76
2022-08-01T12:19:01.515Z,21.74
2022-08-01T12:22:14.191Z,21.73
2022-08-01T12:25:19.872Z,21.71
2022-08-01T12:28:25.574Z,21.73
2022-08-01T12:31:35.979Z,21.82
2022-08-01T12:34:39.642Z,21.84
2022-08-01T12:37:45.840Z,21.87
2022-08-01T12:40:53.313Z,21.89
2022-08-01T12:44:00.529Z,21.92
2022-08-01T12:47:06.376Z,21.94
2022-08-01T12:50:15.884Z,21.96
2022-08-01T12:53:19.792Z,21.98
2022-08-01T12:56:33.493Z,22.00
2022-08-01T12:59:39.609Z,21.98
2022-08-01T13:02:44.180Z,21.98
2022-08-01T13:05:51.319Z,21.96
2022-08-01T13:08:55.165Z,21.95
2022-08-01T13:12:04.257Z,21.94
2022-08-01T13:15:28.516Z,21.94
2022-08-01T13:18:33.465Z,21.94
2022-08-01T13:21:53.768Z,21.95
2022-08-01T13:25:11.883Z,21.88
2022-08-01T13:28:20.297Z,21.96
2022-08-01T13:31:34.690Z,21.95
2022-08-01T13:34:38.869Z,21.94
2022-08-01T13:37:44.231Z,21.91
2022-08-01T13:40:48.207Z,21.90
2022-08-01T13:43:57.956Z,21.86
2022-08-01T13:47:14.983Z,21.85
2022-08-01T13:50:20.607Z,21.85
2022-08-01T13:53:24.319Z,21.81
2022-08-01T13:56:29.501Z,21.78
2022-08-01T13:59:33.278Z,21.79
2022-08-01T14:02:38.347Z,21.84
2022-08-01T14:05:42.203Z,21.94
2022-08-01T14:08:46.946Z,22.00
2022-08-01T14:11:51.805Z,22.07
2022-08-01T14:14:55.464Z,22.11
2022-08-01T14:18:01.040Z,22.17
2022-08-01T14:21:05.861Z,22.19
2022-08-01T14:24:10.692Z,22.24
2022-08-01T14:27:14.446Z,22.29
2022-08-01T14:30:18.182Z,22.24
2022-08-01T14:33:23.544Z,22.21
2022-08-01T14:36:29.346Z,22.19
2022-08-01T14:39:35.083Z,22.18
2022-08-01T14:42:39.494Z,22.13
2022-08-01T14:45:43.189Z,22.12
2022-08-01T14:48:48.333Z,22.13
2022-08-01T14:51:52.146Z,22.14
2022-08-01T14:54:55.823Z,22.15
2022-08-01T14:57:59.544Z,22.16
2022-08-01T15:01:03.369Z,22.18
2022-08-01T15:04:09.922Z,22.20
2022-08-01T15:07:13.797Z,22.21
2022-08-01T15:10:17.653Z,22.23
2022-08-01T15:13:21.303Z,22.20
2022-08-01T15:16:25.456Z,22.20
2022-08-01T15:19:30.989Z,22.17
2022-08-01T15:22:35.047Z,22.12
2022-08-01T15:25:41.792Z,22.14
2022-08-01T15:28:45.953Z,22.14
2022-08-01T15:31:49.661Z,22.15
2022-08-01T15:34:55.240Z,22.13
2022-08-01T15:37:59.261Z,22.11
2022-08-01T15:41:02.963Z,22.08
2022-08-01T15:44:07.192Z,22.05
2022-08-01T15:47:11.765Z,22.03
2022-08-01T15:50:16.820Z,22.03
2022-08-01T15:53:22.920Z,22.02
2022-08-01T15:56:28.901Z,22.02
2022-08-01T15:59:32.824Z,22.01
2022-08-01T16:02:36.475Z,22.03
2022-08-01T16:05:44.058Z,22.02
2022-08-01T16:08:48.167Z,22.02
2022-08-01T16:11:51.970Z,22.04
2022-08-01T16:14:55.760Z,22.07
2022-08-01T16:18:02.262Z,22.09
2022-08-01T16:21:07.889Z,22.11
2022-08-01T16:24:11.583Z,22.13
2022-08-01T16:27:15.372Z,22.15
2022-08-01T16:30:19.120Z,22.16
2022-08-01T16:33:49.589Z,22.16
2022-08-01T16:36:50.261Z,22.19
2022-08-01T16:39:54.024Z,22.19
2022-08-01T16:43:00.120Z,22.21
2022-08-01T16:46:04.098Z,22.20
2022-08-01T16:49:07.891Z,22.24
2022-08-01T16:52:14.329Z,22.27
2022-08-01T16:55:18.148Z,22.30
2022-08-01T16:58:27.651Z,22.34
2022-08-01T17:01:59.613Z,22.39
2022-08-01T17:04:56.831Z,22.43
2022-08-01T17:08:01.922Z,22.46
2022-08-01T17:11:05.700Z,22.49
2022-08-01T17:14:12.198Z,22.47
2022-08-01T17:17:15.952Z,22.42
2022-08-01T17:20:19.684Z,22.35
2022-08-01T17:23:24.821Z,22.27
2022-08-01T17:26:28.592Z,22.24
2022-08-01T17:29:43.281Z,22.18
2022-08-01T17:32:48.148Z,22.16
2022-08-01T17:35:51.935Z,22.13
2022-08-01T17:38:57.108Z,22.13
2022-08-01T17:42:00.932Z,22.10
2022-08-01T17:45:05.092Z,22.09
2022-08-01T17:48:29.502Z,22.03
2022-08-01T17:51:33.664Z,22.02
2022-08-01T17:54:38.900Z,21.99
2022-08-01T17:57:42.764Z,21.97
2022-08-01T18:00:46.614Z,21.95
2022-08-01T18:03:50.432Z,21.92
2022-08-01T18:06:58.183Z,21.89
2022-08-01T18:10:04.194Z,21.89
2022-08-01T18:13:17.491Z,21.88
2022-08-01T18:16:24.364Z,21.86
2022-08-01T18:19:30.595Z,21.82
2022-08-01T18:22:56.006Z,21.81
2022-08-01T18:26:02.857Z,21.79
2022-08-01T18:29:23.218Z,21.77
2022-08-01T18:32:42.960Z,21.76
2022-08-01T18:35:53.684Z,21.72
2022-08-01T18:39:12.733Z,21.71
2022-08-01T18:42:18.543Z,21.68
2022-08-01T18:45:27.674Z,21.66
2022-08-01T18:48:41.644Z,21.64
2022-08-01T18:51:56.516Z,21.62
2022-08-01T18:55:08.419Z,21.61
2022-08-01T18:58:18.673Z,21.59
2022-08-01T19:01:24.373Z,21.55
2022-08-01T19:04:28.888Z,21.53
2022-08-01T19:08:04.386Z,21.53
2022-08-01T19:11:00.088Z,21.55
2022-08-01T19:14:05.391Z,21.54
2022-08-01T19:17:09.394Z,21.54
2022-08-01T19:20:22.172Z,21.53
2022-08-01T19:23:46.735Z,21.51
2022-08-01T19:26:52.479Z,21.48
2022-08-01T19:29:59.501Z,21.47
2022-08-01T19:33:03.768Z,21.45
2022-08-01T19:36:09.739Z,21.43
2022-08-01T19:39:16.728Z,21.42
2022-08-01T19:42:27.230Z,21.41
2022-08-01T19:45:35.440Z,21.41
2022-08-01T19:48:40.618Z,21.38
2022-08-01T19:51:49.665Z,21.41
2022-08-01T19:54:56.245Z,21.41
2022-08-01T19:58:25.847Z,21.40
2022-08-01T20:01:28.994Z,21.40
2022-08-01T20:04:33.672Z,21.37
2022-08-01T20:07:39.895Z,21.37
2022-08-01T20:10:45.123Z,21.38
2022-08-01T20:13:53.596Z,21.35
2022-08-01T20:16:59.277Z,21.42
2022-08-01T20:20:03.254Z,21.44
2022-08-01T20:23:18.313Z,21.43
2022-08-01T20:26:23.463Z,21.41
2022-08-01T20:29:30.183Z,21.41
2022-08-01T20:32:40.265Z,21.39
2022-08-01T20:35:52.316Z,21.36
2022-08-01T20:38:58.052Z,21.36
2022-08-01T20:42:04.679Z,21.35
2022-08-01T20:45:08.915Z,21.34
2022-08-01T20:48:16.067Z,21.33
2022-08-01T20:51:26.586Z,21.33
2022-08-01T20:54:30.677Z,21.32
2022-08-01T20:57:35.178Z,21.31
2022-08-01T21:00:40.177Z,21.30
2022-08-01T21:04:16.749Z,21.31
2022-08-01T21:07:24.867Z,21.28
2022-08-01T21:10:30.340Z,21.27
2022-08-01T21:13:39.448Z,21.24
2022-08-01T21:16:59.964Z,21.26
2022-08-01T21:20:09.315Z,21.24
2022-08-01T21:23:21.428Z,21.25
2022-08-01T21:26:26.206Z,21.23
2022-08-01T21:29:35.933Z,21.22
2022-08-01T21:32:57.322Z,21.20
2022-08-01T21:36:06.509Z,21.20
2022-08-01T21:39:10.943Z,21.18
2022-08-01T21:42:19.001Z,21.16
2022-08-01T21:45:25.245Z,21.15
2022-08-01T21:48:30.109Z,21.12
2022-08-01T21:51:51.717Z,21.09
2022-08-01T21:55:08.062Z,21.07
2022-08-01T21:58:23.973Z,21.06
2022-08-01T22:01:51.516Z,21.02
2022-08-01T22:05:04.392Z,21.00
2022-08-01T22:08:11.479Z,21.00
2022-08-01T22:11:19.436Z,20.97
2022-08-01T22:14:25.739Z,20.94
2022-08-01T22:17:30.032Z,20.93
2022-08-01T22:20:33.870Z,20.90
2022-08-01T22:23:39.501Z,20.90
2022-08-01T22:26:44.353Z,20.88
2022-08-01T22:29:48.326Z,20.84
2022-08-01T22:33:16.715Z,20.81
2022-08-01T22:36:16.033Z,20.82
2022-08-01T22:39:21.377Z,20.77
2022-08-01T22:42:29.404Z,20.76
2022-08-01T22:45:41.312Z,20.73
2022-08-01T22:48:50.446Z,20.71
2022-08-01T22:52:03.368Z,20.70
2022-08-01T22:55:10.298Z,20.69
2022-08-01T22:58:16.361Z,20.66
2022-08-01T23:01:23.454Z,20.66
2022-08-01T23:04:34.060Z,20.62
2022-08-01T23:07:40.951Z,20.60
2022-08-01T23:10:47.008Z,20.59
2022-08-01T23:13:52.333Z,20.56
2022-08-01T23:17:02.988Z,20.55
2022-08-01T23:20:27.387Z,20.52
2022-08-01T23:23:32.313Z,20.50
2022-08-01T23:26:38.979Z,20.48
2022-08-01T23:29:42.673Z,20.47
2022-08-01T23:32:46.295Z,20.45
2022-08-01T23:35:50.086Z,20.43
2022-08-01T23:38:53.774Z,20.43
2022-08-01T23:42:00.966Z,20.43
2022-08-01T23:45:07.770Z,20.41
2022-08-01T23:48:11.446Z,20.40
2022-08-01T23:51:24.237Z,20.40
2022-08-01T23:54:28.316Z,20.40
2022-08-01T23:57:41.212Z,20.39
